• Join FlightAware (Why Join?)
  • Login
  • US Flag 
12:57AM EDT


 

Airport Tracker/Info


-or-


 

Live Flight TrackerFlight Track Log ✈ SWA709 ✈ 23-Apr-2013 ✈ KLAS - KSJC

Flight Track Log - Related Links

Times and Time Zones

All times are in EDT time to prevent confusion due to time zone crossing. See the SWA709 flight status page for this flight to view local times or setup timezone preferences in your user account.

Time Position Orientation Groundspeed Altitude Reporting Facility
EDT Latitude Longitude Course Direction KTS MPH feet Rate Location/Type
11:03AM 36.0767 -115.0722 88° East 196 226 4,900  Level Los Angeles Center
11:04AM 36.0781 -115.0203 88° East 222 255 6,200 2,880 Climbing Los Angeles Center
11:04AM 36.0733 -114.9775 98° East 287 330 7,800 3,420 Climbing Los Angeles Center
11:05AM 36.0425 -114.9342 131° Southeast 289 333 9,700 3,120 Climbing Los Angeles Center
11:05AM 36.0139 -114.9228 162° South 322 371 10,700 3,540 Climbing Los Angeles Center
11:06AM 35.9586 -114.9289 185° South 309 356 13,400 3,360 Climbing Los Angeles Center
11:06AM 35.9428 -114.9731 246° West 298 343 14,500 1,620 Climbing Los Angeles Center
11:07AM 35.9394 -115.0308 266° West 312 359 15,100 1,980 Climbing Los Angeles Center
11:08AM 36.2333 -115.8560 285° West  Level Estimated
11:08AM 35.9350 -115.1519 267° West 342 394 17,900  Level Los Angeles Center
11:09AM 35.9286 -115.2753 266° West 355 409 21,200 2,880 Climbing Los Angeles Center
11:10AM 35.9236 -115.3994 267° West 359 413 23,900 2,460 Climbing Los Angeles Center
11:11AM 35.9169 -115.5564 267° West 372 428 26,400 2,160 Climbing Los Angeles Center
11:12AM 35.9306 -115.6883 277° West 386 444 28,400 2,100 Climbing Los Angeles Center
11:13AM 35.9964 -115.7981 307° West 393 452 30,800 2,220 Climbing Los Angeles Center
11:14AM 36.0650 -115.9103 307° West 388 447 33,000 1,920 Climbing Los Angeles Center
11:15AM 36.1289 -116.0161 307° West 384 442 34,900 1,680 Climbing Los Angeles Center
11:16AM 36.1917 -116.1203 307° West 379 436 36,600 1,500 Climbing Los Angeles Center
11:17AM 36.2589 -116.2308 307° West 370 426 38,000 660 Climbing Los Angeles Center
11:18AM 36.3208 -116.3336 307° West 372 428 38,000  Level Los Angeles Center
11:19AM 36.3817 -116.4375 306° West 373 429 38,000  Level Los Angeles Center
11:20AM 36.4439 -116.5406 307° West 373 429 38,000  Level Los Angeles Center
11:21AM 36.5056 -116.6456 306° West 376 433 38,000  Level Los Angeles Center
11:22AM 36.5711 -116.7672 304° West 374 430 38,000  Level Los Angeles Center
11:23AM 36.5967 -116.9019 283° West 375 432 38,000  Level Los Angeles Center
11:24AM 36.6222 -117.0281 284° West 377 434 38,000  Level Los Angeles Center
11:25AM 36.6464 -117.1553 283° West 379 436 38,000  Level Los Angeles Center
11:26AM 36.6711 -117.2803 284° West 375 432 38,000  Level Los Angeles Center
11:27AM 36.6950 -117.4061 283° West 375 432 38,000  Level Los Angeles Center
11:28AM 36.7233 -117.5600 283° West 380 437 38,000  Level Los Angeles Center
11:29AM 36.7481 -117.6883 284° West 382 440 38,000  Level Los Angeles Center
11:30AM 36.7717 -117.8167 283° West 383 441 38,000  Level Los Angeles Center
11:32AM 36.7961 -117.9464 283° West 387 445 38,000  Level Los Angeles Center
11:33AM 36.8200 -118.0792 283° West 389 448 38,000  Level Los Angeles Center
11:34AM 36.8492 -118.2417 283° West 396 456 38,000 -60 Level Los Angeles Center
11:35AM 36.8756 -118.3778 284° West 401 461 37,900 -540 Descending Los Angeles Center
11:35AM 36.8911 -118.4806 281° West 397 457 37,100 -1,020 Descending Oakland Center
11:36AM 36.9150 -118.6111 283° West 399 459 36,100 -960 Descending Oakland Center
11:37AM 36.9392 -118.7478 283° West 402 463 35,200 -1,080 Descending Oakland Center
11:38AM 36.9650 -118.8875 283° West 416 479 34,000 -1,620 Descending Oakland Center
11:40AM 36.9881 -119.0231 282° West 394 453 31,900 -2,040 Descending Oakland Center
11:41AM 37.0117 -119.1544 283° West 387 445 29,900 -2,220 Descending Oakland Center
11:42AM 37.0381 -119.3097 282° West 384 442 27,500 -2,160 Descending Oakland Center
11:43AM 37.0586 -119.4322 282° West 364 419 25,500 -1,740 Descending Oakland Center
11:44AM 37.0783 -119.5522 282° West 353 406 24,000 -1,260 Descending Oakland Center
11:45AM 37.0989 -119.6728 282° West 355 409 23,000 -1,020 Descending Oakland Center
11:46AM 37.1186 -119.7939 282° West 356 410 22,000 -960 Descending Oakland Center
11:47AM 37.1372 -119.9125 281° West 354 407 21,100 -960 Descending Oakland Center
11:48AM 37.1575 -120.0369 282° West 364 419 20,100 -1,020 Descending Oakland Center
11:49AM 37.1772 -120.1575 282° West 357 411 19,100 -1,080 Descending Oakland Center
11:50AM 37.1625 -120.3117 263° West 371 427 17,900 -1,080 Descending Oakland Center
11:50AM 37.1500 -120.3833 258° West 369 425 17,300 -960 Descending Northern Cal TRACON
11:51AM 37.1333 -120.5000 260° West 370 426 16,300 -1,080 Descending Northern Cal TRACON
11:52AM 37.1244 -120.5625 260° West 363 418 15,900 -1,080 Descending Oakland Center
11:53AM 37.1050 -120.6856 259° West 360 414 14,900 -1,020 Descending Oakland Center
11:54AM 37.0867 -120.8067 259° West 359 413 13,900 -1,020 Descending Oakland Center
11:55AM 37.0700 -120.9208 260° West 336 387 12,900 -1,020 Descending Oakland Center
11:56AM 37.0517 -121.0403 259° West 348 400 11,900 -1,080 Descending Oakland Center
11:57AM 37.0289 -121.1631 257° West 346 398 10,800 -840 Descending Oakland Center
11:58AM 36.9961 -121.2639 248° West 316 364 10,200 -480 Descending Oakland Center
11:59AM 36.9642 -121.3625 248° West 308 354 9,900 -600 Descending Oakland Center
12:00PM 36.9344 -121.4558 248° West 294 338 9,000 -720 Descending Oakland Center
12:01PM 36.9597 -121.5389 291° West 290 334 8,500 -540 Descending Oakland Center
12:02PM 37.0225 -121.5914 326° Northwest 273 314 7,900 -900 Descending Oakland Center
12:03PM 37.0911 -121.6481 327° Northwest 256 295 6,700 -1,380 Descending Oakland Center
12:04PM 37.1519 -121.7067 322° Northwest 262 302 5,100 -1,320 Descending Oakland Center
12:05PM 37.2036 -121.7617 320° Northwest 256 295 4,100 -1,140 Descending Oakland Center
12:06PM 37.2506 -121.8094 321° Northwest 235 270 2,800 -1,200 Descending Oakland Center
12:07PM 37.2894 -121.8489 321° Northwest 204 235 1,700 -960 Descending Oakland Center
12:08PM 37.3197 -121.8814 320° Northwest 171 197 900 -780 Descending Oakland Center
12:09PM 37.3475 -121.9103 320° Northwest 146 168 200 -720 Descending Oakland Center
12:11PM 37.3500 -121.9167 North  Level FlightAware Approximate
12:18PM 37.3627 -121.9291 North  Level Estimated